Time;durP1;ratioP1;P1;durP2;ratioP2;P2;SDS_P1;SDS_P2;PMS_P1;PMS_P2;Temp;Humidity;BMP_temperature;BMP_pressure;BME280_temperature;BME280_humidity;BME280_pressure;Samples;Min_cycle;Max_cycle;Signal;HPM_P1;HPM_P2
2022/09/06 00:00:55;;;;;;;;;4.00;4.00;;;;;20.37;63.39;100395.91;5018970;28;45624;-73
2022/09/06 00:03:21;;;;;;;;;5.67;5.00;;;;;20.40;63.71;100418.84;5019319;28;45486;-73
2022/09/06 00:05:46;;;;;;;;;4.67;4.00;;;;;20.29;63.74;100397.75;5019016;28;45391;-73
2022/09/06 00:08:13;;;;;;;;;5.00;5.00;;;;;20.22;64.75;100396.06;5015059;28;45511;-73
2022/09/06 00:10:41;;;;;;;;;4.67;4.67;;;;;20.14;64.63;100393.50;5009449;28;45582;-73
2022/09/06 00:13:08;;;;;;;;;3.00;3.00;;;;;20.22;65.01;100406.69;5018836;28;45716;-73
2022/09/06 00:15:35;;;;;;;;;4.33;4.33;;;;;20.20;65.27;100408.47;5017961;28;45413;-73
2022/09/06 00:18:03;;;;;;;;;6.00;5.67;;;;;20.21;65.12;100412.88;5019222;28;45590;-73
2022/09/06 00:20:30;;;;;;;;;6.00;5.33;;;;;20.15;64.62;100391.72;5019117;28;45831;-73
2022/09/06 00:22:57;;;;;;;;;6.00;5.00;;;;;20.25;64.38;100396.03;5018841;28;46094;-73
2022/09/06 00:25:23;;;;;;;;;3.33;3.33;;;;;20.25;64.60;100398.69;5018565;28;45412;-73
2022/09/06 00:27:53;;;;;;;;;4.67;4.00;;;;;20.05;64.43;100364.44;5017607;28;45459;-74
2022/09/06 00:30:19;;;;;;;;;6.00;5.00;;;;;20.16;64.83;100383.75;5018171;28;45820;-73
2022/09/06 00:32:44;;;;;;;;;6.00;5.67;;;;;20.06;65.19;100385.63;5018501;28;45621;-73
2022/09/06 00:35:10;;;;;;;;;6.00;6.00;;;;;19.98;66.26;100387.50;5018145;28;45379;-73
2022/09/06 00:37:35;;;;;;;;;6.00;5.33;;;;;19.83;66.76;100393.84;5017745;28;45560;-73
2022/09/06 00:40:02;;;;;;;;;7.00;6.00;;;;;19.66;67.16;100383.38;5018970;28;45412;-73
2022/09/06 00:42:28;;;;;;;;;6.00;6.00;;;;;19.67;67.35;100400.16;5018083;28;45352;-73
2022/09/06 00:44:53;;;;;;;;;6.00;5.00;;;;;19.56;67.50;100371.13;5016957;28;45744;-72
2022/09/06 00:47:19;;;;;;;;;6.00;5.00;;;;;19.64;68.26;100384.31;5018548;28;45431;-74
2022/09/06 00:49:49;;;;;;;;;6.00;6.00;;;;;19.68;68.04;100394.84;5018915;28;45481;-73
2022/09/06 00:52:18;;;;;;;;;4.00;4.00;;;;;19.61;67.98;100368.44;5018224;28;45297;-73
2022/09/06 00:54:45;;;;;;;;;4.67;4.00;;;;;19.72;68.21;100378.97;5016729;28;45520;-73
2022/09/06 00:57:12;;;;;;;;;4.67;4.33;;;;;19.65;68.45;100368.38;5030205;28;45515;-73
2022/09/06 00:59:39;;;;;;;;;5.00;5.00;;;;;19.50;68.47;100375.59;5017870;28;45542;-73
2022/09/06 01:02:07;;;;;;;;;5.00;5.00;;;;;19.31;69.36;100380.19;5018133;28;46268;-73
2022/09/06 01:04:35;;;;;;;;;5.33;5.00;;;;;19.18;69.36;100372.34;5017199;28;45396;-73
2022/09/06 01:07:09;;;;;;;;;7.00;6.00;;;;;19.26;68.87;100369.66;5018367;28;45443;-73
2022/09/06 01:09:49;;;;;;;;;6.00;6.00;;;;;19.21;68.75;100350.25;5018451;28;45402;-73
2022/09/06 01:12:38;;;;;;;;;8.67;7.67;;;;;19.36;68.96;100357.19;5016941;28;47307;-73
2022/09/06 01:15:20;;;;;;;;;6.67;6.67;;;;;19.35;68.42;100356.31;5018284;28;45542;-73
2022/09/06 01:18:25;;;;;;;;;6.00;6.00;;;;;19.39;67.98;100357.16;5033245;28;45491;-72
2022/09/06 01:21:09;;;;;;;;;5.67;4.67;;;;;19.45;68.30;100370.34;5008693;28;45378;-73
2022/09/06 01:24:10;;;;;;;;;6.33;6.00;;;;;19.38;68.31;100363.38;5013636;28;46638;-73
2022/09/06 01:26:58;;;;;;;;;5.67;5.33;;;;;19.37;68.42;100362.47;5004559;28;45785;-73
2022/09/06 01:29:43;;;;;;;;;5.67;5.33;;;;;19.26;68.92;100335.22;5016801;28;45511;-73
2022/09/06 01:32:12;;;;;;;;;6.00;5.00;;;;;19.40;68.67;100354.50;5017221;28;45567;-73
2022/09/06 01:34:48;;;;;;;;;6.00;6.00;;;;;19.41;69.18;100353.59;5017632;28;46220;-73
2022/09/06 01:37:16;;;;;;;;;6.67;5.00;;;;;19.34;69.52;100356.31;5016439;28;45361;-73
2022/09/06 01:39:42;;;;;;;;;7.67;5.33;;;;;18.98;69.43;100343.41;5018376;28;45481;-73
2022/09/06 01:42:27;;;;;;;;;6.33;5.00;;;;;18.78;70.14;100332.91;5018273;28;45470;-73
2022/09/06 01:45:07;;;;;;;;;6.33;5.67;;;;;18.79;69.77;100336.44;5017530;28;45467;-73
2022/09/06 01:47:52;;;;;;;;;5.67;5.00;;;;;18.96;69.66;100346.91;5017602;28;45258;-73
2022/09/06 01:50:45;;;;;;;;;6.00;6.00;;;;;18.95;70.27;100335.47;5018171;28;45532;-74
2022/09/06 01:53:38;;;;;;;;;6.00;5.33;;;;;18.89;70.21;100340.81;5008133;28;45528;-73
2022/09/06 01:56:53;;;;;;;;;6.00;6.00;;;;;18.93;70.75;100339.88;5017812;28;46064;-73
2022/09/06 01:59:30;;;;;;;;;6.00;5.67;;;;;18.98;70.33;100338.09;5001071;28;45400;-73
2022/09/06 02:02:05;;;;;;;;;6.33;6.00;;;;;18.97;70.27;100331.03;5017810;28;45465;-73
2022/09/06 02:04:41;;;;;;;;;5.67;5.00;;;;;18.90;70.20;100320.50;5016411;28;45683;-73
2022/09/06 02:07:20;;;;;;;;;6.00;6.00;;;;;18.93;69.57;100315.19;5017513;28;45413;-73
2022/09/06 02:09:52;;;;;;;;;6.00;5.00;;;;;19.02;69.69;100320.41;5017461;28;45614;-73
2022/09/06 02:12:21;;;;;;;;;5.67;4.00;;;;;19.01;70.17;100318.66;5000516;28;45469;-72
2022/09/06 02:14:55;;;;;;;;;6.67;5.67;;;;;18.91;70.98;100338.16;5017695;28;45553;-73
2022/09/06 02:17:29;;;;;;;;;7.00;5.00;;;;;18.74;70.95;100311.75;5015927;28;45489;-73
2022/09/06 02:20:05;;;;;;;;;6.00;5.00;;;;;18.76;70.20;100300.31;5016982;28;45505;-73
2022/09/06 02:22:40;;;;;;;;;6.00;5.67;;;;;18.84;69.90;100306.44;5017166;28;45905;-73
2022/09/06 02:25:09;;;;;;;;;4.67;4.67;;;;;18.83;70.09;100309.09;5013221;28;45329;-73
2022/09/06 02:27:36;;;;;;;;;10.00;6.00;;;;;18.78;70.01;100300.25;5001025;28;46241;-73
2022/09/06 02:30:03;;;;;;;;;5.00;4.67;;;;;18.93;69.71;100328.44;5017099;28;45702;-73
2022/09/06 02:32:34;;;;;;;;;6.67;5.00;;;;;18.80;70.10;100303.81;5017051;28;45403;-73
2022/09/06 02:35:07;;;;;;;;;6.33;5.33;;;;;18.85;70.52;100313.47;5017222;28;45479;-73
2022/09/06 02:37:33;;;;;;;;;5.00;5.00;;;;;18.83;70.20;100309.09;5016027;28;46014;-72
2022/09/06 02:39:59;;;;;;;;;5.33;5.00;;;;;18.79;70.44;100299.38;5016655;28;45435;-73
2022/09/06 02:42:25;;;;;;;;;4.67;4.67;;;;;18.72;70.61;100284.44;5016986;28;45295;-73
2022/09/06 02:44:53;;;;;;;;;5.67;5.33;;;;;18.73;71.42;100297.66;5015555;28;45599;-73
2022/09/06 02:47:18;;;;;;;;;6.00;6.00;;;;;18.71;71.64;100302.09;5017916;28;45511;-73
2022/09/06 02:49:44;;;;;;;;;5.00;5.00;;;;;18.59;71.30;100275.72;5017536;28;45628;-73
2022/09/06 02:52:09;;;;;;;;;5.00;5.00;;;;;18.77;71.21;100311.75;5016357;28;45281;-73
2022/09/06 02:54:35;;;;;;;;;7.00;6.00;;;;;18.51;71.45;100312.81;5017322;28;45380;-73
2022/09/06 02:57:00;;;;;;;;;8.33;7.00;;;;;18.25;72.36;100320.91;5016654;28;46295;-73
2022/09/06 02:59:26;;;;;;;;;7.00;6.33;;;;;18.18;72.71;100308.59;5017168;28;45411;-73
2022/09/06 03:01:52;;;;;;;;;6.33;5.00;;;;;18.06;73.25;100304.22;5016899;28;45475;-73
2022/09/06 03:04:17;;;;;;;;;7.00;6.33;;;;;18.04;73.18;100298.94;5017817;28;45297;-73
2022/09/06 03:06:43;;;;;;;;;7.00;6.00;;;;;18.12;73.12;100298.03;5016978;28;46479;-73
2022/09/06 03:09:09;;;;;;;;;5.67;5.67;;;;;18.16;72.00;100291.84;5015484;28;45479;-73
2022/09/06 03:11:35;;;;;;;;;8.33;8.00;;;;;18.06;75.24;100285.72;5016119;28;46303;-73
2022/09/06 03:14:00;;;;;;;;;6.67;6.67;;;;;18.12;74.73;100282.19;5015362;28;45930;-73
2022/09/06 03:16:26;;;;;;;;;6.00;6.00;;;;;18.17;73.95;100288.34;5014921;28;48146;-72
2022/09/06 03:18:51;;;;;;;;;6.67;5.67;;;;;18.23;73.65;100286.53;5014843;28;45385;-72
2022/09/06 03:21:17;;;;;;;;;6.00;5.00;;;;;18.35;73.41;100298.78;5016993;28;45351;-73
2022/09/06 03:23:44;;;;;;;;;5.00;3.67;;;;;18.38;73.25;100293.50;5014612;28;45590;-73
2022/09/06 03:26:10;;;;;;;;;6.67;6.67;;;;;18.29;72.80;100280.31;5016223;28;46597;-73
2022/09/06 03:28:35;;;;;;;;;6.00;6.00;;;;;18.32;72.40;100282.94;5031722;28;45284;-73
2022/09/06 03:31:01;;;;;;;;;6.00;6.00;;;;;18.36;72.95;100297.03;5015973;28;45414;-73
2022/09/06 03:33:26;;;;;;;;;8.33;7.67;;;;;18.18;73.16;100284.78;5016785;28;45455;-73
2022/09/06 03:35:55;;;;;;;;;6.33;5.67;;;;;18.24;72.89;100292.69;5015540;28;45587;-73
2022/09/06 03:38:22;;;;;;;;;7.33;7.00;;;;;18.25;73.14;100297.97;5015925;28;45396;-73
2022/09/06 03:40:48;;;;;;;;;8.00;7.00;;;;;18.23;73.68;100285.66;5015038;28;45553;-73
2022/09/06 03:43:16;;;;;;;;;7.67;6.67;;;;;18.25;73.85;100290.03;5016316;28;45393;-73
2022/09/06 03:45:49;;;;;;;;;6.00;5.67;;;;;18.18;73.09;100276.84;5030717;28;45407;-72
2022/09/06 03:48:17;;;;;;;;;7.33;7.00;;;;;18.23;73.91;100290.94;5015823;28;45357;-73
2022/09/06 03:50:47;;;;;;;;;6.33;6.00;;;;;17.98;74.19;100261.97;5015803;28;45534;-73
2022/09/06 03:53:14;;;;;;;;;6.33;5.67;;;;;17.98;74.84;100267.25;5015488;28;45575;-72
2022/09/06 03:55:47;;;;;;;;;6.00;5.00;;;;;18.14;74.32;100296.25;5015370;28;46672;-73
2022/09/06 03:58:14;;;;;;;;;8.00;6.33;;;;;18.13;73.97;100278.66;5015980;28;45342;-72
2022/09/06 04:00:40;;;;;;;;;5.33;5.00;;;;;18.03;73.50;100260.19;5015071;28;45528;-73
2022/09/06 04:03:05;;;;;;;;;9.33;6.67;;;;;18.01;73.80;100253.16;5015517;28;45501;-73
2022/09/06 04:05:31;;;;;;;;;9.00;8.00;;;;;18.15;74.18;100292.75;5014091;28;47043;-72
2022/09/06 04:07:56;;;;;;;;;7.67;6.67;;;;;18.12;73.70;100275.13;5015794;28;45414;-72
2022/09/06 04:10:22;;;;;;;;;6.33;6.33;;;;;18.01;73.85;100269.91;5011378;28;47080;-73
2022/09/06 04:12:48;;;;;;;;;7.00;6.67;;;;;18.01;74.34;100272.53;5005250;28;45327;-72
2022/09/06 04:15:13;;;;;;;;;6.33;6.33;;;;;18.06;74.00;100281.34;5015036;28;45561;-73
2022/09/06 04:17:44;;;;;;;;;6.67;6.33;;;;;18.11;74.15;100291.00;5015144;28;45498;-73
2022/09/06 04:20:09;;;;;;;;;6.33;6.33;;;;;18.03;73.72;100268.13;5016091;28;45666;-73
2022/09/06 04:22:35;;;;;;;;;7.00;7.00;;;;;18.08;73.99;100283.94;5015701;28;45415;-73
2022/09/06 04:25:00;;;;;;;;;6.33;6.33;;;;;18.08;73.54;100291.88;5014095;28;45392;-73
2022/09/06 04:27:26;;;;;;;;;6.67;6.00;;;;;17.90;73.55;100274.34;5013981;28;45450;-73
2022/09/06 04:29:51;;;;;;;;;6.00;6.00;;;;;18.03;73.77;100291.91;5015281;28;45577;-73
2022/09/06 04:32:17;;;;;;;;;10.33;7.33;;;;;18.02;73.19;100299.84;5014588;28;45452;-73
2022/09/06 04:34:42;;;;;;;;;5.67;5.67;;;;;17.85;73.33;100282.31;5015535;28;45513;-72
2022/09/06 04:37:08;;;;;;;;;6.33;6.00;;;;;17.84;73.83;100283.16;5015668;28;45573;-73
2022/09/06 04:39:33;;;;;;;;;6.33;5.67;;;;;17.88;73.86;100284.03;5016637;28;45459;-72
2022/09/06 04:41:59;;;;;;;;;6.67;6.67;;;;;17.96;74.08;100284.88;5016820;28;45538;-72
2022/09/06 04:44:24;;;;;;;;;6.67;6.67;;;;;17.97;73.63;100289.31;5015224;28;47804;-72
2022/09/06 04:47:00;;;;;;;;;6.33;6.33;;;;;17.94;74.32;100291.06;5017302;28;45607;-72
2022/09/06 04:49:26;;;;;;;;;6.33;6.33;;;;;17.80;74.30;100260.25;5014796;28;45668;-72
2022/09/06 04:51:52;;;;;;;;;5.67;5.67;;;;;17.93;73.96;100287.56;5017051;28;45575;-72
2022/09/06 04:54:17;;;;;;;;;7.33;6.67;;;;;17.90;74.29;100284.91;5014782;28;47177;-72
2022/09/06 04:56:43;;;;;;;;;6.67;6.00;;;;;17.82;74.09;100278.75;5016789;28;45613;-73
2022/09/06 04:59:08;;;;;;;;;10.33;10.00;;;;;17.99;74.00;100303.38;5016373;28;45611;-73
2022/09/06 05:01:34;;;;;;;;;8.67;7.00;;;;;18.00;73.92;100302.50;5015187;28;45570;-72
2022/09/06 05:03:59;;;;;;;;;6.33;6.33;;;;;17.94;73.48;100291.94;5016331;28;46506;-72
2022/09/06 05:06:25;;;;;;;;;7.00;6.67;;;;;17.88;73.52;100279.63;5014574;28;45540;-72
2022/09/06 05:08:50;;;;;;;;;5.67;5.33;;;;;17.89;74.05;100285.81;5016963;28;45784;-73
2022/09/06 05:11:17;;;;;;;;;7.33;7.33;;;;;17.91;73.51;100294.63;5016642;28;45720;-74
2022/09/06 05:13:42;;;;;;;;;6.33;6.33;;;;;17.91;73.25;100294.63;5016600;28;46674;-72
2022/09/06 05:16:08;;;;;;;;;5.67;5.67;;;;;17.91;73.54;100297.25;5016176;28;45403;-73
2022/09/06 05:18:34;;;;;;;;;8.67;8.67;;;;;17.92;73.87;100308.69;5014105;28;45351;-74
2022/09/06 05:21:00;;;;;;;;;7.67;7.33;;;;;17.70;74.46;100298.16;5016396;28;45347;-77
2022/09/06 05:23:27;;;;;;;;;7.67;7.00;;;;;17.76;74.22;100311.34;5015918;28;45471;-72
2022/09/06 05:25:53;;;;;;;;;7.00;6.67;;;;;17.64;73.71;100288.50;5013691;28;45386;-73
2022/09/06 05:28:19;;;;;;;;;6.00;5.00;;;;;17.57;73.79;100268.28;5013428;28;45425;-74
2022/09/06 05:30:46;;;;;;;;;6.33;6.33;;;;;17.60;73.92;100275.31;5016135;28;45415;-72
2022/09/06 05:33:13;;;;;;;;;6.33;5.33;;;;;17.83;74.12;100307.84;5014423;28;47661;-72
2022/09/06 05:35:39;;;;;;;;;7.00;7.00;;;;;17.88;73.66;100310.47;5016215;28;45529;-72
2022/09/06 05:38:04;;;;;;;;;6.67;6.67;;;;;17.66;73.33;100276.16;5011955;28;45408;-72
2022/09/06 05:40:30;;;;;;;;;6.00;6.00;;;;;17.63;73.03;100265.63;5015079;28;45793;-73
2022/09/06 05:42:56;;;;;;;;;7.67;6.67;;;;;17.67;73.03;100266.50;5015754;28;46868;-72
2022/09/06 05:45:21;;;;;;;;;7.00;7.00;;;;;17.78;73.31;100285.81;5016180;28;45338;-73
2022/09/06 05:47:47;;;;;;;;;7.00;7.00;;;;;17.78;73.68;100284.94;5016628;28;45414;-73
2022/09/06 05:50:13;;;;;;;;;6.33;6.33;;;;;17.73;74.07;100279.69;5016651;28;45779;-72
2022/09/06 05:52:39;;;;;;;;;7.00;6.00;;;;;17.81;73.74;100301.66;5015105;28;47313;-72
2022/09/06 05:55:05;;;;;;;;;7.33;6.33;;;;;17.81;74.16;100296.38;5016201;28;45491;-73
2022/09/06 05:57:31;;;;;;;;;7.67;7.67;;;;;17.66;73.98;100262.94;5016098;28;45502;-73
2022/09/06 05:59:57;;;;;;;;;5.00;5.00;;;;;17.74;73.76;100277.91;5016953;28;45602;-72
2022/09/06 06:02:23;;;;;;;;;6.67;6.67;;;;;17.91;73.66;100294.63;5016243;28;46117;-72
2022/09/06 06:04:50;;;;;;;;;6.33;6.00;;;;;17.82;73.19;100295.47;5017101;28;45430;-73
2022/09/06 06:07:17;;;;;;;;;6.67;6.33;;;;;17.80;73.22;100273.47;5014614;28;45558;-73
2022/09/06 06:09:43;;;;;;;;;11.00;8.67;;;;;17.93;73.17;100298.13;5014778;28;45735;-72
2022/09/06 06:12:09;;;;;;;;;7.33;7.00;;;;;17.76;73.20;100284.06;5015925;28;45541;-72
2022/09/06 06:14:34;;;;;;;;;9.67;8.67;;;;;17.86;73.09;100301.66;5016085;28;45336;-72
2022/09/06 06:17:01;;;;;;;;;8.33;7.33;;;;;17.56;73.25;100258.59;5014786;28;45443;-73
2022/09/06 06:19:27;;;;;;;;;7.33;7.00;;;;;17.74;73.79;100299.03;5016596;28;45431;-73
2022/09/06 06:21:54;;;;;;;;;7.00;7.00;;;;;17.76;73.59;100305.19;5015633;28;45407;-73
2022/09/06 06:24:20;;;;;;;;;9.67;9.00;;;;;17.86;72.99;100306.97;5015132;28;45373;-73
2022/09/06 06:26:45;;;;;;;;;8.00;8.00;;;;;17.81;73.07;100298.16;5016158;28;45506;-72
2022/09/06 06:29:11;;;;;;;;;8.33;8.33;;;;;17.56;72.32;100248.03;5016291;28;45582;-73
2022/09/06 06:31:37;;;;;;;;;8.00;8.00;;;;;17.99;72.39;100307.81;5015348;28;45520;-72
2022/09/06 06:34:03;;;;;;;;;7.33;7.33;;;;;18.02;72.44;100311.28;5015926;28;45694;-72
2022/09/06 06:36:32;;;;;;;;;8.67;7.33;;;;;18.18;72.66;100342.94;5015570;28;45515;-73
2022/09/06 06:38:59;;;;;;;;;9.00;6.33;;;;;18.24;72.43;100342.91;5014762;28;45501;-72
2022/09/06 06:41:30;;;;;;;;;8.00;7.33;;;;;18.28;72.25;100331.44;5013509;28;46270;-72
2022/09/06 06:44:04;;;;;;;;;7.00;6.33;;;;;17.90;72.28;100269.06;5010453;28;45658;-72
2022/09/06 06:46:32;;;;;;;;;6.33;6.33;;;;;18.63;72.06;100338.31;5015457;28;45285;-72
2022/09/06 06:48:58;;;;;;;;;9.00;8.33;;;;;21.64;65.18;100317.78;5015270;28;45553;-72
2022/09/06 06:51:27;;;;;;;;;7.67;7.00;;;;;25.13;54.71;100300.66;5014769;28;45645;-73
2022/09/06 06:53:53;;;;;;;;;7.67;7.67;;;;;27.55;46.42;100300.22;5014694;28;45501;-73
2022/09/06 06:56:23;;;;;;;;;7.33;6.00;;;;;29.42;43.45;100327.16;5010998;28;45523;-73
2022/09/06 06:58:51;;;;;;;;;7.00;7.00;;;;;30.79;38.84;100316.19;5027200;28;45471;-73
2022/09/06 07:01:19;;;;;;;;;5.00;5.00;;;;;31.39;38.03;100239.78;5014170;28;46451;-73
2022/09/06 07:03:45;;;;;;;;;6.00;6.00;;;;;32.81;34.91;100328.94;5014327;28;45405;-73
2022/09/06 07:06:11;;;;;;;;;6.00;5.67;;;;;33.44;33.57;100314.75;5013684;28;45510;-74
2022/09/06 07:08:37;;;;;;;;;5.00;4.33;;;;;34.29;32.41;100314.22;5015052;28;45770;-73
2022/09/06 07:11:05;;;;;;;;;4.33;4.33;;;;;35.04;31.51;100330.34;5013240;28;45445;-74
2022/09/06 07:13:32;;;;;;;;;5.00;5.00;;;;;35.75;30.65;100275.16;5014139;28;45548;-73
2022/09/06 07:16:19;;;;;;;;;4.33;4.00;;;;;36.89;29.28;100285.75;5014835;28;46125;-75
2022/09/06 07:18:45;;;;;;;;;4.00;3.33;;;;;38.10;28.20;100320.75;5014793;28;45609;-75
2022/09/06 07:21:13;;;;;;;;;5.33;5.00;;;;;38.50;26.72;100303.47;5014840;28;46285;-78
2022/09/06 07:23:38;;;;;;;;;3.67;3.00;;;;;38.43;26.61;100294.09;5030315;28;45437;-78
2022/09/06 07:26:04;;;;;;;;;4.00;4.00;;;;;39.03;25.98;100310.47;5015294;28;45514;-77
2022/09/06 07:28:30;;;;;;;;;3.67;3.33;;;;;39.24;25.52;100304.84;5015319;28;45348;-79
2022/09/06 07:30:56;;;;;;;;;6.00;5.00;;;;;39.66;24.66;100315.44;5030453;28;45492;-78
2022/09/06 07:33:22;;;;;;;;;3.33;3.33;;;;;39.87;24.18;100296.09;5013980;28;45365;-83
2022/09/06 07:35:59;;;;;;;;;5.33;3.00;;;;;40.33;23.46;100307.13;5015385;28;46406;-77
2022/09/06 07:38:27;;;;;;;;;4.67;3.67;;;;;40.75;23.26;100312.09;5015509;28;45377;-78
2022/09/06 07:41:11;;;;;;;;;4.33;4.33;;;;;41.18;23.17;100296.75;5013466;28;46390;-78
2022/09/06 07:43:37;;;;;;;;;4.00;4.00;;;;;41.63;22.73;100290.25;5013344;28;45600;-76
2022/09/06 07:46:04;;;;;;;;;4.67;4.33;;;;;41.98;21.98;100299.31;5014694;28;45497;-76
2022/09/06 07:48:32;;;;;;;;;3.00;2.67;;;;;42.51;22.91;100284.47;5027751;28;45390;-76
2022/09/06 07:51:12;;;;;;;;;4.00;4.00;;;;;42.91;21.66;100295.72;5014539;28;45784;-77
2022/09/06 07:53:44;;;;;;;;;2.67;2.67;;;;;42.93;21.60;100277.19;5013970;28;45453;-77
2022/09/06 07:56:11;;;;;;;;;5.00;4.00;;;;;43.47;21.36;100279.41;4999440;28;45292;-76
2022/09/06 07:58:38;;;;;;;;;3.67;3.33;;;;;43.83;20.70;100263.34;5013045;28;45594;-78
2022/09/06 08:01:24;;;;;;;;;4.00;4.00;;;;;44.51;20.70;100288.53;5014331;28;46197;-76
2022/09/06 08:03:50;;;;;;;;;4.33;4.33;;;;;45.01;21.07;100259.56;5013235;28;45802;-77
2022/09/06 08:06:15;;;;;;;;;5.00;5.00;;;;;45.79;19.99;100289.69;5013116;28;45547;-75
2022/09/06 08:08:41;;;;;;;;;5.00;4.33;;;;;45.17;19.87;100246.69;5011089;28;45720;-75
2022/09/06 08:11:07;;;;;;;;;4.00;4.00;;;;;45.61;19.45;100267.97;5030327;28;47800;-74
2022/09/06 08:13:36;;;;;;;;;4.33;3.67;;;;;45.65;19.70;100272.94;5015202;28;45458;-77
2022/09/06 08:16:05;;;;;;;;;3.00;3.00;;;;;45.81;19.27;100274.66;5016080;28;45539;-75
2022/09/06 08:18:31;;;;;;;;;5.00;4.00;;;;;46.04;19.22;100249.72;5031339;28;45580;-76
2022/09/06 08:21:05;;;;;;;;;3.67;3.67;;;;;46.38;19.33;100262.00;5015676;28;47886;-76
2022/09/06 08:23:30;;;;;;;;;4.00;4.00;;;;;46.65;18.88;100248.50;5012633;28;45554;-76
2022/09/06 08:25:57;;;;;;;;;6.67;6.00;;;;;46.54;19.03;100252.66;5013275;28;45683;-77
2022/09/06 08:28:23;;;;;;;;;4.00;4.00;;;;;46.50;19.31;100236.66;5031562;28;45725;-75
2022/09/06 08:30:48;;;;;;;;;4.00;3.33;;;;;46.22;19.23;100243.78;5016536;28;46096;-76
2022/09/06 08:33:14;;;;;;;;;3.00;3.00;;;;;45.81;19.82;100243.44;5016483;28;45394;-77
2022/09/06 08:35:40;;;;;;;;;4.00;3.67;;;;;46.22;19.12;100256.69;5016538;28;45483;-75
2022/09/06 08:38:06;;;;;;;;;3.67;3.67;;;;;46.24;19.58;100243.56;5032424;28;45608;-76
2022/09/06 08:40:32;;;;;;;;;3.00;3.00;;;;;46.41;18.47;100249.72;5015118;28;45478;-76
2022/09/06 08:42:57;;;;;;;;;6.00;4.00;;;;;46.03;19.01;100183.63;5015100;28;46367;-77
2022/09/06 08:45:23;;;;;;;;;3.00;3.00;;;;;46.31;19.00;100224.31;5031999;28;45391;-76
2022/09/06 08:47:51;;;;;;;;;3.00;3.00;;;;;46.38;19.75;100248.19;5016782;28;45588;-75
2022/09/06 08:50:18;;;;;;;;;4.00;4.00;;;;;46.23;19.12;100228.91;5016383;28;46086;-75
2022/09/06 08:53:04;;;;;;;;;2.67;2.67;;;;;45.82;17.87;100231.34;5015079;28;45760;-79
2022/09/06 08:56:05;;;;;;;;;3.67;3.00;;;;;45.49;18.38;100242.75;5013282;28;45420;-76
2022/09/06 08:58:41;;;;;;;;;3.00;3.00;;;;;45.18;17.94;100245.63;4973831;28;45559;-79
2022/09/06 09:01:16;;;;;;;;;5.67;5.67;;;;;44.88;18.20;100250.22;5013426;28;45470;-76
2022/09/06 09:03:42;;;;;;;;;2.33;2.33;;;;;44.42;18.32;100227.09;5015923;28;45466;-74
2022/09/06 09:06:09;;;;;;;;;2.33;1.33;;;;;44.61;18.39;100255.19;5016206;28;45352;-75
2022/09/06 09:09:02;;;;;;;;;3.67;2.67;;;;;44.37;18.73;100235.06;5016220;28;45616;-75
2022/09/06 09:11:29;;;;;;;;;3.00;3.00;;;;;44.47;19.67;100241.22;5028566;28;45982;-74
2022/09/06 09:14:19;;;;;;;;;4.00;4.00;;;;;44.72;19.60;100246.53;5014479;28;45793;-75
2022/09/06 09:16:50;;;;;;;;;2.00;2.00;;;;;44.96;18.07;100237.22;5015937;28;45556;-75
2022/09/06 09:19:16;;;;;;;;;2.33;2.33;;;;;45.20;18.23;100236.13;5015159;28;45577;-77
2022/09/06 09:21:41;;;;;;;;;1.00;1.00;;;;;45.54;16.80;100243.03;5011873;28;46517;-76
2022/09/06 09:24:10;;;;;;;;;3.00;3.00;;;;;45.77;16.55;100250.38;5013592;28;45346;-74
2022/09/06 09:26:57;;;;;;;;;1.00;1.00;;;;;45.83;17.32;100239.44;5030615;28;45467;-76
2022/09/06 09:29:22;;;;;;;;;2.67;1.67;;;;;46.31;16.00;100244.50;5015384;28;45451;-75
2022/09/06 09:31:51;;;;;;;;;2.33;2.33;;;;;46.34;16.21;100222.03;5017760;28;45437;-85
2022/09/06 09:34:38;;;;;;;;;1.00;1.00;;;;;46.79;15.18;100255.00;5015152;28;45482;-77
2022/09/06 09:37:25;;;;;;;;;3.33;3.00;;;;;46.92;15.50;100255.16;5014681;28;45508;-79
2022/09/06 09:39:56;;;;;;;;;1.00;1.00;;;;;47.03;15.84;100245.47;5017048;28;45432;-81
2022/09/06 09:42:41;;;;;;;;;1.00;1.00;;;;;47.03;14.55;100250.97;5016725;28;45538;-75
2022/09/06 09:45:28;;;;;;;;;1.67;1.67;;;;;47.23;15.47;100248.41;5015766;28;45411;-75
2022/09/06 09:47:54;;;;;;;;;2.00;1.67;;;;;47.08;14.75;100242.97;5016198;28;45376;-77
2022/09/06 09:50:28;;;;;;;;;1.00;1.00;;;;;46.50;15.51;100247.69;5016977;28;45550;-74
2022/09/06 09:52:54;;;;;;;;;1.00;1.00;;;;;46.39;15.19;100246.28;5016917;28;45983;-74
2022/09/06 09:55:26;;;;;;;;;1.67;1.33;;;;;46.16;16.13;100235.41;5016578;28;45634;-75
2022/09/06 09:57:53;;;;;;;;;2.00;2.00;;;;;46.43;15.86;100222.78;5016377;28;45536;-76
2022/09/06 10:00:38;;;;;;;;;1.67;1.00;;;;;46.29;15.62;100224.50;5016232;28;45455;-74
2022/09/06 10:03:19;;;;;;;;;2.00;2.00;;;;;45.96;15.51;100171.63;5011850;28;47007;-76
2022/09/06 10:05:59;;;;;;;;;1.67;1.67;;;;;45.93;15.74;100164.59;5014088;28;45791;-77
2022/09/06 10:08:29;;;;;;;;;4.00;3.33;;;;;46.12;15.95;100203.69;5015308;28;45392;-73
2022/09/06 10:10:56;;;;;;;;;1.00;1.00;;;;;46.02;15.42;100212.25;5016614;28;45562;-76
2022/09/06 10:13:33;;;;;;;;;1.67;1.67;;;;;46.01;15.87;100213.31;5015395;28;46184;-76
2022/09/06 10:16:01;;;;;;;;;1.33;1.33;;;;;45.88;16.09;100202.13;5014795;28;45472;-74
2022/09/06 10:18:27;;;;;;;;;2.33;2.33;;;;;45.93;15.47;100206.00;5015933;28;45382;-76
2022/09/06 10:20:56;;;;;;;;;2.00;2.00;;;;;45.92;16.12;100192.41;5016826;28;45335;-75
2022/09/06 10:23:42;;;;;;;;;2.00;2.00;;;;;45.48;15.88;100194.13;5015664;28;46291;-74
2022/09/06 10:26:17;;;;;;;;;4.00;3.33;;;;;45.21;16.20;100173.59;5012848;28;45569;-75
2022/09/06 10:28:45;;;;;;;;;3.67;3.00;;;;;45.21;15.96;100179.94;5011295;28;45479;-76
2022/09/06 10:31:44;;;;;;;;;2.67;1.67;;;;;44.79;16.79;100183.25;5013300;28;45598;-75
2022/09/06 10:34:09;;;;;;;;;3.33;3.33;;;;;44.90;16.35;100182.00;5012444;28;45350;-73
2022/09/06 10:36:38;;;;;;;;;1.67;1.67;;;;;44.32;16.95;100185.16;5014705;28;45335;-74
2022/09/06 10:39:19;;;;;;;;;1.67;1.67;;;;;43.68;17.04;100177.94;5014629;28;45459;-74
2022/09/06 10:42:11;;;;;;;;;1.33;1.33;;;;;43.38;18.04;100179.56;5012924;28;45359;-78
2022/09/06 10:44:36;;;;;;;;;1.00;1.00;;;;;43.35;17.97;100170.81;4990841;28;45391;-76
2022/09/06 10:47:10;;;;;;;;;1.67;1.67;;;;;43.01;18.30;100170.00;5015092;28;45413;-73
2022/09/06 10:49:39;;;;;;;;;2.00;2.00;;;;;42.21;18.68;100161.56;5031137;28;45316;-74
2022/09/06 10:52:10;;;;;;;;;2.33;1.67;;;;;41.43;19.66;100155.25;5016073;28;45415;-72
2022/09/06 10:54:39;;;;;;;;;3.00;3.00;;;;;40.95;19.40;100151.19;5014519;28;45582;-73
2022/09/06 10:57:34;;;;;;;;;3.33;2.67;;;;;40.44;20.48;100153.66;5015783;28;45482;-74
2022/09/06 11:00:13;;;;;;;;;3.00;3.00;;;;;39.93;21.08;100142.34;5009960;28;45346;-72
2022/09/06 11:02:55;;;;;;;;;1.00;1.00;;;;;39.52;20.92;100105.44;5015617;28;45475;-72
2022/09/06 11:05:31;;;;;;;;;2.67;2.67;;;;;39.01;21.62;100128.63;5015524;28;46301;-72
2022/09/06 11:08:01;;;;;;;;;2.67;2.67;;;;;38.82;23.13;100127.66;5031100;28;45335;-74
2022/09/06 11:10:33;;;;;;;;;3.00;3.00;;;;;38.36;22.46;100126.50;5015653;28;45451;-73
2022/09/06 11:13:10;;;;;;;;;4.00;3.00;;;;;38.08;22.54;100137.28;5016189;28;45535;-78
2022/09/06 11:16:05;;;;;;;;;5.00;4.33;;;;;37.96;22.62;100130.19;5014711;28;45367;-72
2022/09/06 11:18:44;;;;;;;;;2.33;1.33;;;;;37.81;21.66;100130.59;5037477;28;45486;-72
2022/09/06 11:21:47;;;;;;;;;3.00;3.00;;;;;37.26;22.26;100129.22;5013380;28;45624;-70
2022/09/06 11:24:30;;;;;;;;;2.00;2.00;;;;;36.81;22.51;100114.91;5016603;28;45430;-71
2022/09/06 11:27:24;;;;;;;;;2.00;1.00;;;;;36.56;22.53;100128.91;5016281;28;45495;-72
2022/09/06 11:29:55;;;;;;;;;2.67;2.67;;;;;36.28;23.22;100128.53;5016257;28;45431;-71
2022/09/06 11:32:36;;;;;;;;;3.67;2.67;;;;;36.00;23.01;100119.94;5016786;28;45505;-71
2022/09/06 11:35:08;;;;;;;;;3.00;2.67;;;;;35.86;23.26;100112.09;5015886;28;45621;-72
2022/09/06 11:37:41;;;;;;;;;1.33;1.33;;;;;35.26;23.12;100114.22;5015968;28;45557;-71
2022/09/06 11:40:23;;;;;;;;;5.67;2.67;;;;;35.06;23.18;100092.22;5016229;28;45339;-70